Time;durP1;ratioP1;P1;durP2;ratioP2;P2;SDS_P1;SDS_P2;PMS_P1;PMS_P2;Temp;Humidity;BMP_temperature;BMP_pressure;BME280_temperature;BME280_humidity;BME280_pressure;Samples;Min_cycle;Max_cycle;Signal;HPM_P1;HPM_P2
2024/01/27 00:02:21;;;;;;;8.20;3.10;;;6.00;99.90;;;;;;5052452;28;20466;-57
2024/01/27 00:04:48;;;;;;;12.37;3.80;;;6.00;99.90;;;;;;5052724;28;20827;-57
2024/01/27 00:07:15;;;;;;;12.27;3.57;;;6.00;99.90;;;;;;5052736;28;20519;-57
2024/01/27 00:09:43;;;;;;;14.03;3.67;;;6.00;99.90;;;;;;5052732;28;20445;-57
2024/01/27 00:12:10;;;;;;;17.97;4.30;;;6.00;99.90;;;;;;5055875;28;20441;-57
2024/01/27 00:14:39;;;;;;;14.63;4.10;;;6.10;99.90;;;;;;5056418;28;20477;-58
2024/01/27 00:17:06;;;;;;;9.43;3.57;;;6.00;99.90;;;;;;5056187;28;20441;-57
2024/01/27 00:19:33;;;;;;;17.37;4.13;;;6.10;99.90;;;;;;5056238;28;20495;-57
2024/01/27 00:21:59;;;;;;;17.53;3.67;;;6.00;99.90;;;;;;5055999;28;20445;-57
2024/01/27 00:24:26;;;;;;;26.63;6.00;;;6.00;99.90;;;;;;5069999;28;20440;-58
2024/01/27 00:26:54;;;;;;;9.43;3.07;;;5.80;99.90;;;;;;5076486;28;20448;-57
2024/01/27 00:29:21;;;;;;;9.57;3.53;;;5.80;99.90;;;;;;5076716;28;20452;-57
2024/01/27 00:31:49;;;;;;;12.13;3.63;;;5.80;99.90;;;;;;5076083;28;20448;-57
2024/01/27 00:34:15;;;;;;;14.37;3.80;;;5.80;99.90;;;;;;5075959;28;20492;-57
2024/01/27 00:36:48;;;;;;;15.13;4.73;;;5.90;99.90;;;;;;5076326;28;20441;-57
2024/01/27 00:39:15;;;;;;;15.10;3.70;;;5.80;99.90;;;;;;5075684;28;20911;-57
2024/01/27 00:41:41;;;;;;;14.73;3.70;;;5.80;99.90;;;;;;5075743;28;20931;-57
2024/01/27 00:44:10;;;;;;;9.73;4.20;;;5.80;99.90;;;;;;5075931;28;20515;-57
2024/01/27 00:46:37;;;;;;;11.53;3.53;;;5.80;99.90;;;;;;5075958;28;20437;-57
2024/01/27 00:49:04;;;;;;;16.73;4.17;;;5.80;99.90;;;;;;5075957;28;20841;-57
2024/01/27 00:51:31;;;;;;;10.40;3.70;;;5.80;99.90;;;;;;5075570;28;20444;-58
2024/01/27 00:53:57;;;;;;;11.00;3.83;;;5.70;99.90;;;;;;5075629;28;20464;-58
2024/01/27 00:56:24;;;;;;;12.63;3.77;;;5.70;99.90;;;;;;5075315;28;20470;-58
2024/01/27 00:58:51;;;;;;;9.60;4.60;;;5.70;99.90;;;;;;5075079;28;20468;-58
2024/01/27 01:01:19;;;;;;;11.90;3.63;;;5.70;99.90;;;;;;5075648;28;20471;-58
2024/01/27 01:03:45;;;;;;;14.23;3.10;;;5.80;99.90;;;;;;5075335;28;20467;-58
2024/01/27 01:06:12;;;;;;;14.17;4.10;;;5.80;99.90;;;;;;5075501;28;20462;-57
2024/01/27 01:08:39;;;;;;;11.67;3.73;;;5.80;99.90;;;;;;5075441;28;20452;-58
2024/01/27 01:11:05;;;;;;;8.70;3.33;;;5.80;99.90;;;;;;5075111;28;20958;-57
2024/01/27 01:13:32;;;;;;;10.47;3.30;;;5.70;99.90;;;;;;5075334;28;20464;-58
2024/01/27 01:15:59;;;;;;;19.33;4.30;;;5.50;99.90;;;;;;5075918;28;20485;-58
2024/01/27 01:18:27;;;;;;;11.30;4.47;;;5.60;99.90;;;;;;5075351;28;20437;-58
2024/01/27 01:20:54;;;;;;;11.03;3.37;;;5.50;99.90;;;;;;5075144;28;20446;-58
2024/01/27 01:23:20;;;;;;;10.20;3.37;;;5.60;99.90;;;;;;5074485;28;20472;-58
2024/01/27 01:25:47;;;;;;;6.83;3.47;;;5.60;99.90;;;;;;5075163;28;20449;-58
2024/01/27 01:28:14;;;;;;;13.03;3.50;;;5.70;99.90;;;;;;5075080;28;20818;-58
2024/01/27 01:30:40;;;;;;;16.13;4.10;;;5.70;99.90;;;;;;5075010;28;20448;-58
2024/01/27 01:33:07;;;;;;;12.87;3.40;;;5.70;99.90;;;;;;5075000;28;20833;-57
2024/01/27 01:35:35;;;;;;;7.63;3.40;;;5.70;99.90;;;;;;5074702;28;20489;-58
2024/01/27 01:38:02;;;;;;;9.30;3.53;;;5.70;99.90;;;;;;5074532;28;20448;-58
2024/01/27 01:40:29;;;;;;;13.00;3.87;;;5.60;99.90;;;;;;5074857;28;20449;-58
2024/01/27 01:42:55;;;;;;;11.73;4.73;;;5.50;99.90;;;;;;5074629;28;20468;-58
2024/01/27 01:45:22;;;;;;;10.97;3.80;;;5.50;99.90;;;;;;5074765;28;20436;-58
2024/01/27 01:47:49;;;;;;;13.57;3.53;;;5.40;99.90;;;;;;5074668;28;20813;-58
2024/01/27 01:50:16;;;;;;;15.27;5.03;;;5.40;99.90;;;;;;5074643;28;20444;-58
2024/01/27 01:52:45;;;;;;;14.93;5.23;;;5.40;99.90;;;;;;5074376;28;20846;-58
2024/01/27 01:55:12;;;;;;;12.87;3.63;;;5.40;99.90;;;;;;5074052;28;21017;-58
2024/01/27 01:57:39;;;;;;;12.33;4.33;;;5.40;99.90;;;;;;5074252;28;20969;-58
2024/01/27 02:00:07;;;;;;;16.83;4.50;;;5.30;99.90;;;;;;5074786;28;20437;-58
2024/01/27 02:02:33;;;;;;;20.67;3.93;;;5.30;99.90;;;;;;5074163;28;21001;-58
2024/01/27 02:05:01;;;;;;;10.13;3.40;;;5.30;99.90;;;;;;5074428;28;20775;-58
2024/01/27 02:07:28;;;;;;;13.63;4.07;;;5.20;99.90;;;;;;5074201;28;20467;-58
2024/01/27 02:09:56;;;;;;;9.30;4.00;;;5.20;99.90;;;;;;5074217;28;20441;-58
2024/01/27 02:12:23;;;;;;;11.57;4.07;;;5.20;99.90;;;;;;5073881;28;20950;-58
2024/01/27 02:14:49;;;;;;;18.53;4.47;;;5.20;99.90;;;;;;5073761;28;20486;-58
2024/01/27 02:17:16;;;;;;;18.47;3.90;;;5.30;99.90;;;;;;5073750;28;20970;-58
2024/01/27 02:19:43;;;;;;;12.73;3.90;;;5.30;99.90;;;;;;5074050;28;20445;-58
2024/01/27 02:22:10;;;;;;;10.57;3.53;;;5.30;99.90;;;;;;5073956;28;20588;-58
2024/01/27 02:24:38;;;;;;;9.90;4.07;;;5.30;99.90;;;;;;5074213;28;20448;-58
2024/01/27 02:27:05;;;;;;;12.07;3.30;;;5.40;99.90;;;;;;5074068;28;20444;-58
2024/01/27 02:29:31;;;;;;;23.23;4.17;;;5.40;99.90;;;;;;5073854;28;20964;-58
2024/01/27 02:31:58;;;;;;;9.70;3.70;;;5.50;99.90;;;;;;5073388;28;20788;-58
2024/01/27 02:34:25;;;;;;;11.60;4.57;;;5.50;99.90;;;;;;5073156;28;20819;-58
2024/01/27 02:36:52;;;;;;;11.23;4.20;;;5.50;99.90;;;;;;5073845;28;20440;-58
2024/01/27 02:39:18;;;;;;;12.10;4.13;;;5.50;99.90;;;;;;5073883;28;20447;-58
2024/01/27 02:41:46;;;;;;;16.17;5.03;;;5.50;99.90;;;;;;5073860;28;20453;-59
2024/01/27 02:44:13;;;;;;;14.30;3.90;;;5.40;99.90;;;;;;5073212;28;20978;-58
2024/01/27 02:46:42;;;;;;;11.40;3.63;;;5.40;99.90;;;;;;5073673;28;20444;-58
2024/01/27 02:49:09;;;;;;;14.73;4.00;;;5.50;99.90;;;;;;5073518;28;20822;-58
2024/01/27 02:51:35;;;;;;;9.87;4.50;;;5.50;99.90;;;;;;5073495;28;20444;-58
2024/01/27 02:54:02;;;;;;;15.00;4.77;;;5.50;99.90;;;;;;5073696;28;20475;-58
2024/01/27 02:56:29;;;;;;;16.80;5.07;;;5.50;99.90;;;;;;5073636;28;20492;-58
2024/01/27 02:58:57;;;;;;;16.30;4.00;;;5.50;99.90;;;;;;5073356;28;20444;-57
2024/01/27 03:01:23;;;;;;;18.77;4.57;;;5.50;99.90;;;;;;5073436;28;20452;-59
2024/01/27 03:03:50;;;;;;;13.67;3.93;;;5.40;99.90;;;;;;5073460;28;20467;-58
2024/01/27 03:06:17;;;;;;;14.13;3.80;;;5.40;99.90;;;;;;5073282;28;20443;-58
2024/01/27 03:08:43;;;;;;;15.30;4.23;;;5.40;99.90;;;;;;5073511;28;20826;-58
2024/01/27 03:11:10;;;;;;;12.87;3.80;;;5.40;99.90;;;;;;5073431;28;20445;-58
2024/01/27 03:13:37;;;;;;;13.73;3.73;;;5.40;99.90;;;;;;5073415;28;20514;-58
2024/01/27 03:16:10;;;;;;;20.93;4.53;;;5.40;99.90;;;;;;5073553;28;20541;-58
2024/01/27 03:18:37;;;;;;;17.57;5.30;;;5.30;99.90;;;;;;5073232;28;20923;-58
2024/01/27 03:21:04;;;;;;;12.50;4.10;;;5.40;99.90;;;;;;5074050;28;20472;-58
2024/01/27 03:23:30;;;;;;;17.57;5.77;;;5.40;99.90;;;;;;5073435;28;20469;-59
2024/01/27 03:25:57;;;;;;;15.50;3.90;;;5.30;99.90;;;;;;5073609;28;20452;-58
2024/01/27 03:28:24;;;;;;;11.60;4.60;;;5.40;99.90;;;;;;5073405;28;20448;-59
2024/01/27 03:30:50;;;;;;;12.90;3.33;;;5.30;99.90;;;;;;5073556;28;20445;-58
2024/01/27 03:33:18;;;;;;;10.90;3.40;;;5.30;99.90;;;;;;5073182;28;20465;-59
2024/01/27 03:35:45;;;;;;;10.83;4.00;;;5.30;99.90;;;;;;5073173;28;20484;-59
2024/01/27 03:38:12;;;;;;;4.37;2.63;;;5.30;99.90;;;;;;5074402;28;20494;-58
2024/01/27 03:40:38;;;;;;;14.50;4.00;;;5.30;99.90;;;;;;5074411;28;20484;-59
2024/01/27 03:43:05;;;;;;;9.83;4.00;;;5.30;99.90;;;;;;5073634;28;20464;-59
2024/01/27 03:45:32;;;;;;;13.43;4.47;;;5.30;99.90;;;;;;5074050;28;20459;-59
2024/01/27 03:47:58;;;;;;;10.10;3.30;;;5.30;99.90;;;;;;5077611;28;20440;-58
2024/01/27 03:50:26;;;;;;;15.70;4.00;;;5.30;99.90;;;;;;5077447;28;20456;-59
2024/01/27 03:52:53;;;;;;;15.53;4.27;;;5.30;99.90;;;;;;5076707;28;20480;-58
2024/01/27 03:55:20;;;;;;;12.60;3.73;;;5.20;99.90;;;;;;5077043;28;20483;-58
2024/01/27 03:57:46;;;;;;;14.27;4.47;;;5.20;99.90;;;;;;5077843;28;20448;-58
2024/01/27 04:00:14;;;;;;;12.43;3.73;;;5.20;99.90;;;;;;5078436;28;20452;-59
2024/01/27 04:02:40;;;;;;;15.20;4.53;;;5.20;99.90;;;;;;5077388;28;20460;-59
2024/01/27 04:05:08;;;;;;;10.30;3.57;;;5.20;99.90;;;;;;5076800;28;20821;-60
2024/01/27 04:07:36;;;;;;;15.73;4.00;;;5.20;99.90;;;;;;5077315;28;20436;-59
2024/01/27 04:10:04;;;;;;;15.60;3.60;;;5.20;99.90;;;;;;5076669;28;20488;-58
2024/01/27 04:12:30;;;;;;;14.97;4.47;;;5.20;99.90;;;;;;5076287;28;20879;-57
2024/01/27 04:14:59;;;;;;;10.40;3.60;;;5.20;99.90;;;;;;5076387;28;20452;-59
2024/01/27 04:17:26;;;;;;;11.63;4.00;;;5.20;99.90;;;;;;5076747;28;20456;-58
2024/01/27 04:19:53;;;;;;;12.27;4.07;;;5.30;99.90;;;;;;5076347;28;20448;-58
2024/01/27 04:22:19;;;;;;;12.43;4.00;;;5.20;99.90;;;;;;5075914;28;20464;-58
2024/01/27 04:24:47;;;;;;;15.30;4.23;;;5.20;99.90;;;;;;5076285;28;20437;-59
2024/01/27 04:27:14;;;;;;;7.83;3.50;;;5.20;99.90;;;;;;5076318;28;20440;-58
2024/01/27 04:29:41;;;;;;;18.17;5.07;;;5.30;99.90;;;;;;5076071;28;20449;-58
2024/01/27 04:32:08;;;;;;;16.00;3.57;;;5.20;99.90;;;;;;5076021;28;20456;-58
2024/01/27 04:34:35;;;;;;;8.70;3.53;;;5.20;99.90;;;;;;5076258;28;20449;-58
2024/01/27 04:37:01;;;;;;;11.20;3.93;;;5.20;99.90;;;;;;5076211;28;20483;-58
2024/01/27 04:39:29;;;;;;;12.60;4.10;;;5.20;99.90;;;;;;5076033;28;20539;-58
2024/01/27 04:41:57;;;;;;;10.60;3.67;;;5.20;99.90;;;;;;5076078;28;20449;-58
2024/01/27 04:44:23;;;;;;;14.40;4.83;;;5.20;99.90;;;;;;5076027;28;20467;-59
2024/01/27 04:46:50;;;;;;;10.90;3.97;;;5.20;99.90;;;;;;5075965;28;20441;-59
2024/01/27 04:49:17;;;;;;;16.67;4.30;;;5.10;99.90;;;;;;5075870;28;20448;-59
2024/01/27 04:51:44;;;;;;;13.50;4.10;;;5.10;99.90;;;;;;5075609;28;20452;-59
2024/01/27 04:54:11;;;;;;;15.53;4.43;;;5.00;99.90;;;;;;5075771;28;20471;-58
2024/01/27 04:56:38;;;;;;;10.10;3.63;;;5.00;99.90;;;;;;5075591;28;20484;-59
2024/01/27 04:59:07;;;;;;;18.33;4.00;;;5.00;99.90;;;;;;5074566;28;20455;-59
2024/01/27 05:01:34;;;;;;;10.30;4.30;;;5.00;99.90;;;;;;5075559;28;20478;-58
2024/01/27 05:04:00;;;;;;;12.23;4.40;;;5.00;99.90;;;;;;5075520;28;20496;-58
2024/01/27 05:06:27;;;;;;;17.87;5.60;;;5.00;99.90;;;;;;5075714;28;20440;-59
2024/01/27 05:08:54;;;;;;;7.00;4.53;;;5.00;99.90;;;;;;5075526;28;20445;-59
2024/01/27 05:11:27;;;;;;;18.30;4.30;;;5.00;99.90;;;;;;5075256;28;20443;-59
2024/01/27 05:13:54;;;;;;;20.23;5.10;;;5.00;99.90;;;;;;5075337;28;20518;-58
2024/01/27 05:16:22;;;;;;;14.60;4.07;;;5.00;99.90;;;;;;5074978;28;21000;-59
2024/01/27 05:18:49;;;;;;;21.30;4.63;;;5.00;99.90;;;;;;5075287;28;20448;-59
2024/01/27 05:21:15;;;;;;;16.13;4.67;;;5.00;99.90;;;;;;5075325;28;20464;-59
2024/01/27 05:23:42;;;;;;;22.33;4.97;;;5.00;99.90;;;;;;5075108;28;20464;-58
2024/01/27 05:26:10;;;;;;;9.30;3.73;;;5.00;99.90;;;;;;5075994;28;20527;-59
2024/01/27 05:28:37;;;;;;;16.13;4.20;;;4.90;99.90;;;;;;5074770;28;20973;-59
2024/01/27 05:31:04;;;;;;;17.50;6.00;;;4.90;99.90;;;;;;5074928;28;20441;-58
2024/01/27 05:33:32;;;;;;;11.40;4.70;;;4.90;99.90;;;;;;5074817;28;20471;-59
2024/01/27 05:35:59;;;;;;;12.33;4.27;;;4.90;99.90;;;;;;5074517;28;20484;-58
2024/01/27 05:38:28;;;;;;;21.90;4.50;;;5.00;99.90;;;;;;5074903;28;20445;-59
2024/01/27 05:40:55;;;;;;;17.70;4.67;;;5.00;99.90;;;;;;5074798;28;20543;-59
2024/01/27 05:43:22;;;;;;;11.03;4.03;;;5.00;99.90;;;;;;5074987;28;20471;-58
2024/01/27 05:45:49;;;;;;;10.80;4.23;;;5.00;99.90;;;;;;5074814;28;20441;-59
2024/01/27 05:48:17;;;;;;;20.67;5.03;;;5.00;99.90;;;;;;5074451;28;20449;-58
2024/01/27 05:50:55;;;;;;;15.57;4.90;;;5.00;99.90;;;;;;5074530;28;20502;-58
2024/01/27 05:53:22;;;;;;;15.63;4.47;;;4.90;99.90;;;;;;5074232;28;20571;-58
2024/01/27 05:55:49;;;;;;;17.27;3.80;;;5.00;99.90;;;;;;5074534;28;20447;-58
2024/01/27 05:58:16;;;;;;;10.20;3.60;;;5.00;99.90;;;;;;5074867;28;20441;-57
2024/01/27 06:00:43;;;;;;;11.67;4.43;;;5.00;99.90;;;;;;5074144;28;20939;-57
2024/01/27 06:03:10;;;;;;;12.83;4.20;;;5.00;99.90;;;;;;5074358;28;20483;-57
2024/01/27 06:05:37;;;;;;;16.33;5.33;;;5.00;99.90;;;;;;5074150;28;20961;-57
2024/01/27 06:08:07;;;;;;;23.73;5.57;;;5.00;99.90;;;;;;5074498;28;20448;-57
2024/01/27 06:10:33;;;;;;;11.00;4.27;;;5.00;99.90;;;;;;5074141;28;20545;-57
2024/01/27 06:13:00;;;;;;;22.80;4.60;;;5.00;99.90;;;;;;5073830;28;20831;-57
2024/01/27 06:15:27;;;;;;;11.77;3.50;;;4.90;99.90;;;;;;5074272;28;20444;-58
2024/01/27 06:17:53;;;;;;;17.73;4.27;;;4.90;99.90;;;;;;5074076;28;20492;-58
2024/01/27 06:20:20;;;;;;;20.03;4.30;;;4.80;99.90;;;;;;5074013;28;20445;-57
2024/01/27 06:22:47;;;;;;;17.87;5.23;;;4.80;99.90;;;;;;5073670;28;20978;-57
2024/01/27 06:25:16;;;;;;;10.43;4.20;;;4.80;99.90;;;;;;5074059;28;20451;-57
2024/01/27 06:27:43;;;;;;;13.03;4.50;;;4.80;99.90;;;;;;5074699;28;20457;-57
2024/01/27 06:30:10;;;;;;;18.07;4.37;;;4.80;99.90;;;;;;5073868;28;20814;-58
2024/01/27 06:32:37;;;;;;;11.07;4.00;;;4.80;99.90;;;;;;5073640;28;20905;-57
2024/01/27 06:35:05;;;;;;;16.63;4.00;;;4.80;99.90;;;;;;5074041;28;20447;-57
2024/01/27 06:37:32;;;;;;;19.57;4.93;;;4.80;99.90;;;;;;5073762;28;20476;-57
2024/01/27 06:39:58;;;;;;;16.20;3.90;;;4.80;99.90;;;;;;5073675;28;20451;-57
2024/01/27 06:42:26;;;;;;;16.33;3.80;;;4.80;99.90;;;;;;5073673;28;20465;-57
2024/01/27 06:44:53;;;;;;;10.80;3.60;;;4.80;99.90;;;;;;5073339;28;20803;-57
2024/01/27 06:47:20;;;;;;;11.10;3.77;;;4.80;99.90;;;;;;5073709;28;20445;-58
2024/01/27 06:49:46;;;;;;;17.00;3.87;;;4.80;99.90;;;;;;5073570;28;20437;-58
2024/01/27 06:52:13;;;;;;;6.83;3.40;;;4.80;99.90;;;;;;5072829;28;20464;-58
2024/01/27 06:54:43;;;;;;;12.90;3.60;;;4.80;99.90;;;;;;5073619;28;20467;-58
2024/01/27 06:57:19;;;;;;;14.93;4.13;;;4.80;99.90;;;;;;5073665;28;20473;-58
2024/01/27 06:59:51;;;;;;;16.47;4.73;;;4.70;99.90;;;;;;5074074;28;20429;-58
2024/01/27 07:02:19;;;;;;;11.20;3.60;;;4.70;99.90;;;;;;5073897;28;20432;-58
2024/01/27 07:04:45;;;;;;;8.77;3.23;;;4.70;99.90;;;;;;5073834;28;20440;-58
2024/01/27 07:07:12;;;;;;;11.37;4.00;;;4.70;99.90;;;;;;5073660;28;20452;-57
2024/01/27 07:09:39;;;;;;;10.43;3.70;;;4.70;99.90;;;;;;5073290;28;20635;-58
2024/01/27 07:12:06;;;;;;;14.00;4.37;;;4.70;99.90;;;;;;5073416;28;20448;-58
2024/01/27 07:14:33;;;;;;;14.53;4.40;;;4.70;99.90;;;;;;5073348;28;20452;-57
2024/01/27 07:17:01;;;;;;;13.23;4.23;;;4.70;99.90;;;;;;5073251;28;20871;-58
2024/01/27 07:19:28;;;;;;;17.30;4.10;;;4.70;99.90;;;;;;5073387;28;20448;-57
2024/01/27 07:21:54;;;;;;;12.80;4.23;;;4.60;99.90;;;;;;5072746;28;20459;-57
2024/01/27 07:24:21;;;;;;;13.27;4.30;;;4.60;99.90;;;;;;5073401;28;20464;-58
2024/01/27 07:26:48;;;;;;;11.33;4.07;;;4.60;99.90;;;;;;5073443;28;20448;-58
2024/01/27 07:29:14;;;;;;;13.57;3.77;;;4.60;99.90;;;;;;5073039;28;20809;-58
2024/01/27 07:31:41;;;;;;;14.37;3.50;;;4.60;99.90;;;;;;5072811;28;20942;-58
2024/01/27 07:34:09;;;;;;;11.13;3.40;;;4.50;99.90;;;;;;5073157;28;20468;-57
2024/01/27 07:36:36;;;;;;;15.60;3.83;;;4.50;99.90;;;;;;5072826;28;20476;-57
2024/01/27 07:39:04;;;;;;;9.60;2.87;;;4.50;99.90;;;;;;5073643;28;20444;-57
2024/01/27 07:41:31;;;;;;;13.40;3.40;;;4.50;99.90;;;;;;5073287;28;20452;-57
2024/01/27 07:43:58;;;;;;;13.10;3.50;;;4.50;99.90;;;;;;5073030;28;20509;-57
2024/01/27 07:46:25;;;;;;;9.77;3.63;;;4.60;99.90;;;;;;5073177;28;20456;-57
2024/01/27 07:48:51;;;;;;;14.10;4.60;;;4.60;99.90;;;;;;5073142;28;20444;-57
2024/01/27 07:51:19;;;;;;;10.53;3.33;;;4.60;99.90;;;;;;5073293;28;20451;-58
2024/01/27 07:53:46;;;;;;;9.80;3.60;;;4.50;99.90;;;;;;5072707;28;20472;-58
2024/01/27 07:56:13;;;;;;;13.70;3.27;;;4.50;99.90;;;;;;5073882;28;20448;-58
2024/01/27 07:58:39;;;;;;;15.00;3.60;;;4.50;99.90;;;;;;5072963;28;20452;-58
2024/01/27 08:01:06;;;;;;;11.90;3.63;;;4.50;99.90;;;;;;5072914;28;20448;-58
2024/01/27 08:03:33;;;;;;;19.73;4.43;;;4.50;99.90;;;;;;5072900;28;20468;-58
2024/01/27 08:05:59;;;;;;;20.60;4.27;;;4.60;99.90;;;;;;5072883;28;20444;-57
2024/01/27 08:08:28;;;;;;;14.03;3.90;;;4.60;99.90;;;;;;5072651;28;20939;-57
2024/01/27 08:10:54;;;;;;;12.73;4.30;;;4.60;99.90;;;;;;5072464;28;20845;-57
2024/01/27 08:13:21;;;;;;;8.60;3.87;;;4.60;99.90;;;;;;5072656;28;20460;-58
2024/01/27 08:15:48;;;;;;;11.37;4.20;;;4.60;99.90;;;;;;5072744;28;20456;-58
2024/01/27 08:18:14;;;;;;;10.63;3.47;;;4.60;99.90;;;;;;5073040;28;20484;-58
2024/01/27 08:20:41;;;;;;;12.63;4.27;;;4.70;99.90;;;;;;5073024;28;20444;-57
2024/01/27 08:23:09;;;;;;;21.40;6.37;;;4.70;99.90;;;;;;5072777;28;20480;-58
2024/01/27 08:25:37;;;;;;;11.97;4.57;;;4.70;99.90;;;;;;5072693;28;20523;-58
2024/01/27 08:28:05;;;;;;;13.30;4.37;;;4.70;99.90;;;;;;5072948;28;20437;-57
2024/01/27 08:30:32;;;;;;;16.70;4.63;;;4.70;99.90;;;;;;5072606;28;20467;-57
2024/01/27 08:32:58;;;;;;;19.00;4.20;;;4.80;99.90;;;;;;5073466;28;20511;-57
2024/01/27 08:35:25;;;;;;;13.90;4.17;;;4.80;99.90;;;;;;5076205;28;20445;-57
2024/01/27 08:37:52;;;;;;;13.00;4.07;;;4.80;99.90;;;;;;5076281;28;20533;-57
2024/01/27 08:40:19;;;;;;;15.40;4.40;;;4.80;99.90;;;;;;5076225;28;20444;-57
2024/01/27 08:42:47;;;;;;;13.47;4.53;;;4.80;99.90;;;;;;5076148;28;20471;-57
2024/01/27 08:45:14;;;;;;;14.10;4.87;;;4.90;99.90;;;;;;5076381;28;20449;-58
2024/01/27 08:47:40;;;;;;;17.33;4.20;;;4.90;99.90;;;;;;5076854;28;20440;-58
2024/01/27 08:50:08;;;;;;;11.70;4.30;;;5.00;99.90;;;;;;5075997;28;20801;-58
2024/01/27 08:52:35;;;;;;;21.90;4.77;;;5.00;99.90;;;;;;5075873;28;20499;-58
2024/01/27 08:55:01;;;;;;;9.67;3.50;;;5.10;99.90;;;;;;5076084;28;20451;-58
2024/01/27 08:57:28;;;;;;;19.03;4.37;;;5.10;99.90;;;;;;5075923;28;20476;-58
2024/01/27 08:59:56;;;;;;;13.97;3.70;;;5.20;99.90;;;;;;5076038;28;20444;-57
2024/01/27 09:02:23;;;;;;;17.53;4.33;;;5.20;99.90;;;;;;5075859;28;20469;-58
2024/01/27 09:04:50;;;;;;;15.30;3.70;;;5.30;99.90;;;;;;5075713;28;20445;-57
2024/01/27 09:07:17;;;;;;;11.40;4.23;;;5.30;99.90;;;;;;5075639;28;20950;-58
2024/01/27 09:09:44;;;;;;;15.27;3.83;;;5.30;99.90;;;;;;5075844;28;20935;-58
2024/01/27 09:12:10;;;;;;;8.73;4.10;;;5.40;99.90;;;;;;5075737;28;20444;-58
2024/01/27 09:14:37;;;;;;;19.17;3.80;;;5.40;99.90;;;;;;5075871;28;20802;-58
2024/01/27 09:17:05;;;;;;;9.50;3.57;;;5.50;99.90;;;;;;5075642;28;20481;-58
2024/01/27 09:19:32;;;;;;;13.33;3.77;;;5.50;99.90;;;;;;5075825;28;20445;-58
2024/01/27 09:21:59;;;;;;;14.37;3.77;;;5.50;99.90;;;;;;5076321;28;20444;-58
2024/01/27 09:24:25;;;;;;;10.60;3.63;;;5.60;99.90;;;;;;5075737;28;20532;-58
2024/01/27 09:26:52;;;;;;;16.83;3.23;;;5.60;99.90;;;;;;5075509;28;20460;-58
2024/01/27 09:29:20;;;;;;;16.47;3.10;;;5.70;99.90;;;;;;5075705;28;20452;-58
2024/01/27 09:31:46;;;;;;;10.20;4.90;;;5.70;99.90;;;;;;5075243;28;20984;-58
2024/01/27 09:34:14;;;;;;;15.30;3.20;;;5.80;99.90;;;;;;5075448;28;20460;-58
2024/01/27 09:36:41;;;;;;;7.27;3.10;;;5.90;99.90;;;;;;5075596;28;20445;-58
2024/01/27 09:39:08;;;;;;;9.53;3.70;;;5.90;99.90;;;;;;5076079;28;20444;-59
2024/01/27 09:41:35;;;;;;;16.30;3.20;;;5.90;99.90;;;;;;5075509;28;20527;-59
2024/01/27 09:44:03;;;;;;;11.13;3.33;;;6.00;99.90;;;;;;5074680;28;20483;-59
2024/01/27 09:46:31;;;;;;;14.87;4.37;;;6.00;99.90;;;;;;5076260;28;20449;-59
2024/01/27 09:48:59;;;;;;;6.00;3.30;;;6.00;99.90;;;;;;5075304;28;20452;-59
2024/01/27 09:51:27;;;;;;;9.50;3.90;;;6.10;99.90;;;;;;5075341;28;20490;-61
2024/01/27 09:53:54;;;;;;;13.87;3.93;;;6.10;99.90;;;;;;5074594;28;20479;-59
2024/01/27 09:56:21;;;;;;;10.53;3.63;;;6.20;99.90;;;;;;5075119;28;20436;-59
2024/01/27 09:58:49;;;;;;;10.17;3.90;;;6.20;99.90;;;;;;5074934;28;20487;-59
2024/01/27 10:01:17;;;;;;;10.00;3.70;;;6.30;99.90;;;;;;5074812;28;20828;-58
2024/01/27 10:03:44;;;;;;;15.60;3.73;;;6.40;99.90;;;;;;5074542;28;20468;-59
2024/01/27 10:06:11;;;;;;;11.93;4.20;;;6.50;99.90;;;;;;5074850;28;20444;-58
2024/01/27 10:08:39;;;;;;;10.10;3.17;;;6.40;99.90;;;;;;5074688;28;20444;-58
2024/01/27 10:11:08;;;;;;;14.70;3.90;;;6.50;99.90;;;;;;5074943;28;20456;-58
2024/01/27 10:13:35;;;;;;;17.00;3.50;;;6.50;99.90;;;;;;5074573;28;21004;-58
2024/01/27 10:16:03;;;;;;;12.07;3.70;;;6.60;99.90;;;;;;5074726;28;20444;-58
2024/01/27 10:18:29;;;;;;;16.87;3.80;;;6.70;99.90;;;;;;5074486;28;20487;-58
2024/01/27 10:20:56;;;;;;;9.43;3.20;;;6.80;99.90;;;;;;5074611;28;20817;-57
2024/01/27 10:23:23;;;;;;;13.40;3.40;;;6.80;99.90;;;;;;5074799;28;20941;-57
2024/01/27 10:25:52;;;;;;;22.57;4.40;;;6.70;99.90;;;;;;5075210;28;20455;-57
2024/01/27 10:28:20;;;;;;;13.60;4.57;;;6.80;99.90;;;;;;5074432;28;20460;-57
2024/01/27 10:30:48;;;;;;;9.80;3.77;;;6.80;99.90;;;;;;5074840;28;20451;-57
2024/01/27 10:33:15;;;;;;;12.37;3.10;;;6.90;99.90;;;;;;5074353;28;20472;-57
2024/01/27 10:35:42;;;;;;;11.27;4.70;;;6.90;99.90;;;;;;5074732;28;20441;-57
2024/01/27 10:38:09;;;;;;;8.43;3.10;;;7.10;99.90;;;;;;5074941;28;20997;-56
2024/01/27 10:40:37;;;;;;;12.73;2.87;;;7.10;99.90;;;;;;5074455;28;20443;-57
2024/01/27 10:43:07;;;;;;;9.27;3.57;;;7.10;99.90;;;;;;5074483;28;20460;-57
2024/01/27 10:45:37;;;;;;;7.87;2.63;;;7.10;99.90;;;;;;5074415;28;20425;-57
2024/01/27 10:48:05;;;;;;;10.23;3.40;;;7.10;99.90;;;;;;5075175;28;20444;-57
2024/01/27 10:50:35;;;;;;;12.00;3.80;;;7.10;99.90;;;;;;5074886;28;20455;-57
2024/01/27 10:53:03;;;;;;;13.40;3.50;;;7.10;99.90;;;;;;5074860;28;20476;-57
2024/01/27 10:55:31;;;;;;;6.90;3.20;;;7.20;99.90;;;;;;5074178;28;20451;-56
2024/01/27 10:58:01;;;;;;;11.17;3.43;;;7.30;99.90;;;;;;5075529;28;20481;-56
2024/01/27 11:00:30;;;;;;;10.97;2.90;;;7.30;99.90;;;;;;5076119;28;20463;-56
2024/01/27 11:02:59;;;;;;;7.90;3.37;;;7.30;99.90;;;;;;5076194;28;20499;-56
2024/01/27 11:05:29;;;;;;;17.13;5.10;;;7.50;99.90;;;;;;5074961;28;20813;-56
2024/01/27 11:07:57;;;;;;;11.47;3.23;;;7.60;99.90;;;;;;5076272;28;20973;-56
2024/01/27 11:10:24;;;;;;;10.53;3.47;;;7.70;99.90;;;;;;5076310;28;20455;-56
2024/01/27 11:12:52;;;;;;;12.07;3.13;;;7.90;99.90;;;;;;5076209;28;20461;-56
2024/01/27 11:15:19;;;;;;;18.33;3.50;;;8.10;99.90;;;;;;5075460;28;20452;-57
2024/01/27 11:17:47;;;;;;;12.70;3.00;;;8.50;98.90;;;;;;5073515;28;20600;-56
2024/01/27 11:20:16;;;;;;;15.50;3.13;;;8.90;97.90;;;;;;5073465;28;20472;-57
2024/01/27 11:22:43;;;;;;;10.77;3.50;;;9.10;96.90;;;;;;5073482;28;20472;-56
2024/01/27 11:25:17;;;;;;;9.73;2.87;;;9.50;95.80;;;;;;5073570;28;20451;-56
2024/01/27 11:27:46;;;;;;;11.50;3.53;;;9.70;95.30;;;;;;5073251;28;20898;-56
2024/01/27 11:30:29;;;;;;;8.53;3.10;;;10.00;93.40;;;;;;5073032;28;20869;-56
2024/01/27 11:32:58;;;;;;;10.93;3.60;;;10.30;93.10;;;;;;5073113;28;20464;-56
2024/01/27 11:35:25;;;;;;;8.03;3.33;;;10.40;92.80;;;;;;5073177;28;20448;-56
2024/01/27 11:37:52;;;;;;;9.80;3.83;;;10.60;92.50;;;;;;5073027;28;20479;-56
2024/01/27 11:40:19;;;;;;;10.33;3.70;;;10.80;91.50;;;;;;5073407;28;20448;-56
2024/01/27 11:42:55;;;;;;;13.57;3.20;;;10.90;91.10;;;;;;5073254;28;20464;-56
2024/01/27 11:45:22;;;;;;;8.50;3.00;;;11.00;90.70;;;;;;5073115;28;20449;-56
2024/01/27 11:47:49;;;;;;;17.13;3.50;;;11.20;90.80;;;;;;5073004;28;21049;-56
2024/01/27 11:50:18;;;;;;;13.30;3.70;;;11.40;87.70;;;;;;5072794;28;20970;-56
2024/01/27 11:52:45;;;;;;;9.80;2.70;;;11.60;87.60;;;;;;5072824;28;20483;-56
2024/01/27 11:55:12;;;;;;;7.43;3.20;;;11.80;87.90;;;;;;5072351;28;20985;-56
2024/01/27 11:57:38;;;;;;;11.47;2.60;;;11.90;85.00;;;;;;5072973;28;20457;-56
2024/01/27 12:00:07;;;;;;;12.40;4.57;;;12.10;85.30;;;;;;5072918;28;20444;-56
2024/01/27 12:02:33;;;;;;;13.10;3.47;;;12.50;83.20;;;;;;5072737;28;20467;-56
2024/01/27 12:05:00;;;;;;;12.73;2.63;;;13.00;80.00;;;;;;5072864;28;20471;-57
2024/01/27 12:07:28;;;;;;;7.90;2.90;;;13.40;75.90;;;;;;5074578;28;20447;-57
2024/01/27 12:09:55;;;;;;;8.60;3.13;;;13.90;74.90;;;;;;5076710;28;20545;-58
2024/01/27 12:12:22;;;;;;;6.73;2.60;;;14.20;66.70;;;;;;5076488;28;20464;-58
2024/01/27 12:14:49;;;;;;;5.60;2.37;;;14.50;63.40;;;;;;5076502;28;20448;-57
2024/01/27 12:17:17;;;;;;;6.00;3.00;;;14.70;60.90;;;;;;5076508;28;20448;-58
2024/01/27 12:19:48;;;;;;;15.70;3.20;;;14.80;59.80;;;;;;5077188;28;20484;-58
2024/01/27 12:22:23;;;;;;;8.03;2.50;;;15.00;59.60;;;;;;5076007;28;20428;-57
2024/01/27 12:24:51;;;;;;;11.07;3.20;;;15.00;57.80;;;;;;5076440;28;20450;-58
2024/01/27 12:27:18;;;;;;;5.30;2.37;;;14.90;56.40;;;;;;5076416;28;20443;-57
2024/01/27 12:29:46;;;;;;;10.13;2.57;;;14.90;56.00;;;;;;5076340;28;20441;-58
2024/01/27 12:32:13;;;;;;;11.73;2.93;;;15.20;55.60;;;;;;5076190;28;20448;-58
2024/01/27 12:34:45;;;;;;;8.10;3.03;;;15.20;54.50;;;;;;5076080;28;20444;-58
2024/01/27 12:37:12;;;;;;;9.67;2.77;;;15.30;53.70;;;;;;5076045;28;20444;-57
2024/01/27 12:39:42;;;;;;;8.90;2.03;;;15.20;53.40;;;;;;5075990;28;20484;-57
2024/01/27 12:42:11;;;;;;;11.23;2.70;;;15.20;53.80;;;;;;5075693;28;20935;-58
2024/01/27 12:44:37;;;;;;;10.13;2.23;;;15.20;53.80;;;;;;5076026;28;20456;-58
2024/01/27 12:47:05;;;;;;;7.13;2.47;;;15.40;53.40;;;;;;5075943;28;20440;-58
2024/01/27 12:49:31;;;;;;;10.87;2.60;;;15.60;53.50;;;;;;5075926;28;20491;-58